createdAt,value
2024-02-08T00:01:44.176Z,11.05
2024-02-08T00:02:16.323Z,9.45
2024-02-08T00:02:49.867Z,10.23
2024-02-08T00:03:21.510Z,10.85
2024-02-08T00:03:53.191Z,10.20
2024-02-08T00:04:43.425Z,10.77
2024-02-08T00:05:15.407Z,10.50
2024-02-08T00:05:47.042Z,9.48
2024-02-08T00:06:20.223Z,11.43
2024-02-08T00:06:52.160Z,11.18
2024-02-08T00:07:24.165Z,9.68
2024-02-08T00:07:56.127Z,9.07
2024-02-08T00:08:46.272Z,10.15
2024-02-08T00:09:25.179Z,10.60
2024-02-08T00:09:58.336Z,9.38
2024-02-08T00:10:30.073Z,10.53
2024-02-08T00:11:04.172Z,10.48
2024-02-08T00:11:39.993Z,10.48
2024-02-08T00:12:14.284Z,10.63
2024-02-08T00:12:46.397Z,11.13
2024-02-08T00:13:18.968Z,10.73
2024-02-08T00:13:53.053Z,9.45
2024-02-08T00:14:27.099Z,10.55
2024-02-08T00:14:58.842Z,9.52
2024-02-08T00:15:33.375Z,9.88
2024-02-08T00:16:23.460Z,11.27
2024-02-08T00:16:56.244Z,10.43
2024-02-08T00:17:28.880Z,10.02
2024-02-08T00:18:01.756Z,10.73
2024-02-08T00:18:33.670Z,10.35
2024-02-08T00:19:05.576Z,9.38
2024-02-08T00:19:37.504Z,9.40
2024-02-08T00:20:09.682Z,9.93
2024-02-08T00:20:41.708Z,10.90
2024-02-08T00:21:19.214Z,9.90
2024-02-08T00:21:51.502Z,9.47
2024-02-08T00:22:23.111Z,9.52
2024-02-08T00:23:17.245Z,9.82
2024-02-08T00:23:49.044Z,9.90
2024-02-08T00:24:21.815Z,10.07
2024-02-08T00:25:00.626Z,10.07
2024-02-08T00:26:09.709Z,9.65
2024-02-08T00:26:42.774Z,9.07
2024-02-08T00:27:14.547Z,10.05
2024-02-08T00:27:49.875Z,9.88
2024-02-08T00:28:22.788Z,10.00
2024-02-08T00:28:54.264Z,9.73
2024-02-08T00:29:28.163Z,9.35
2024-02-08T00:30:02.615Z,10.43
2024-02-08T00:30:34.523Z,10.70
2024-02-08T00:31:26.568Z,10.13
2024-02-08T00:32:01.310Z,9.38
2024-02-08T00:32:51.434Z,10.48
2024-02-08T00:33:25.603Z,9.43
2024-02-08T00:33:57.862Z,8.65
2024-02-08T00:34:29.596Z,9.50
2024-02-08T00:35:07.834Z,9.43
2024-02-08T00:35:44.524Z,9.75
2024-02-08T00:36:19.752Z,8.88
2024-02-08T00:36:52.173Z,9.30
2024-02-08T00:38:13.032Z,8.65
2024-02-08T00:39:08.144Z,8.60
2024-02-08T00:39:45.646Z,9.38
2024-02-08T00:40:36.556Z,9.50
2024-02-08T00:41:08.205Z,10.43
2024-02-08T00:41:39.808Z,9.00
2024-02-08T00:42:14.427Z,9.02
2024-02-08T00:42:49.314Z,8.75
2024-02-08T00:43:21.438Z,9.80
2024-02-08T00:44:12.337Z,9.15
2024-02-08T00:44:49.098Z,8.40
2024-02-08T00:45:24.082Z,10.25
2024-02-08T00:45:55.801Z,9.57
2024-02-08T00:46:27.740Z,9.25
2024-02-08T00:47:18.110Z,9.07
2024-02-08T00:47:56.040Z,9.60
2024-02-08T00:48:28.119Z,8.80
2024-02-08T00:48:59.895Z,9.93
2024-02-08T00:49:31.844Z,9.02
2024-02-08T00:50:04.753Z,9.23
2024-02-08T00:50:39.672Z,9.65
2024-02-08T00:51:14.023Z,10.55
2024-02-08T00:51:45.697Z,10.55
2024-02-08T00:52:19.791Z,9.82
2024-02-08T00:53:44.424Z,10.05
2024-02-08T00:54:19.338Z,10.23
2024-02-08T00:54:52.852Z,9.73
2024-02-08T00:55:46.326Z,10.13
2024-02-08T00:56:22.285Z,10.25
2024-02-08T00:56:54.643Z,10.73
2024-02-08T00:57:34.035Z,12.75
2024-02-08T00:58:06.076Z,11.13
2024-02-08T00:58:37.777Z,10.73
2024-02-08T00:59:12.691Z,11.63
2024-02-08T00:59:46.612Z,11.63
2024-02-08T01:00:21.335Z,11.82
2024-02-08T01:00:54.630Z,11.23
2024-02-08T01:01:32.251Z,11.30
2024-02-08T01:02:06.466Z,10.07
2024-02-08T01:02:41.245Z,10.82
2024-02-08T01:03:14.913Z,10.93
2024-02-08T01:03:48.365Z,10.88
2024-02-08T01:04:38.776Z,10.32
2024-02-08T01:05:13.652Z,11.30
2024-02-08T01:06:07.161Z,10.52
2024-02-08T01:06:42.325Z,10.05
2024-02-08T01:07:14.308Z,9.88
2024-02-08T01:07:45.892Z,10.57
2024-02-08T01:08:17.585Z,11.27
2024-02-08T01:08:49.344Z,10.40
2024-02-08T01:09:24.227Z,10.52
2024-02-08T01:09:55.948Z,10.50
2024-02-08T01:10:31.486Z,11.25
2024-02-08T01:11:06.015Z,10.87
2024-02-08T01:11:37.959Z,10.05
2024-02-08T01:12:11.366Z,10.85
2024-02-08T01:13:01.756Z,11.80
2024-02-08T01:13:33.754Z,11.10
2024-02-08T01:14:07.854Z,10.13
2024-02-08T01:14:58.153Z,10.52
2024-02-08T01:15:30.140Z,9.80
2024-02-08T01:16:31.822Z,10.98
2024-02-08T01:17:06.467Z,10.13
2024-02-08T01:17:38.180Z,11.83
2024-02-08T01:18:11.478Z,10.75
2024-02-08T01:19:01.929Z,11.43
2024-02-08T01:19:35.245Z,10.98
2024-02-08T01:20:08.161Z,10.15
2024-02-08T01:20:41.714Z,11.68
2024-02-08T01:21:14.930Z,10.77
2024-02-08T01:21:52.966Z,11.25
2024-02-08T01:23:03.098Z,10.82
2024-02-08T01:24:52.227Z,10.23
2024-02-08T01:25:24.127Z,10.00
2024-02-08T01:25:55.979Z,9.85
2024-02-08T01:26:30.262Z,9.75
2024-02-08T01:27:02.850Z,11.50
2024-02-08T01:27:34.679Z,11.65
2024-02-08T01:28:08.345Z,10.25
2024-02-08T01:28:41.486Z,11.57
2024-02-08T01:29:13.342Z,12.50
2024-02-08T01:29:45.567Z,11.73
2024-02-08T01:30:17.355Z,10.83
2024-02-08T01:31:43.695Z,10.35
2024-02-08T01:32:17.667Z,11.15
2024-02-08T01:32:50.354Z,11.15
2024-02-08T01:33:24.718Z,11.32
2024-02-08T01:33:56.619Z,11.13
2024-02-08T01:34:30.452Z,11.75
2024-02-08T01:35:03.961Z,11.32
2024-02-08T01:35:41.386Z,11.75
2024-02-08T01:36:14.704Z,11.70
2024-02-08T01:36:53.232Z,10.60
2024-02-08T01:37:29.273Z,12.63
2024-02-08T01:38:03.800Z,11.32
2024-02-08T01:38:36.235Z,12.65
2024-02-08T01:39:19.646Z,11.35
2024-02-08T01:39:51.547Z,10.05
2024-02-08T01:40:24.034Z,11.95
2024-02-08T01:40:56.616Z,12.23
2024-02-08T01:41:32.487Z,11.50
2024-02-08T01:42:12.060Z,11.10
2024-02-08T01:42:52.820Z,10.70
2024-02-08T01:43:29.229Z,11.52
2024-02-08T01:44:05.069Z,10.90
2024-02-08T01:44:39.346Z,10.55
2024-02-08T01:45:31.708Z,11.32
2024-02-08T01:46:04.135Z,10.10
2024-02-08T01:46:39.783Z,11.23
2024-02-08T01:47:11.817Z,11.30
2024-02-08T01:47:49.535Z,10.75
2024-02-08T01:48:24.330Z,11.17
2024-02-08T01:48:58.969Z,11.23
2024-02-08T01:49:33.472Z,10.88
2024-02-08T01:50:05.811Z,13.45
2024-02-08T01:50:46.288Z,12.43
2024-02-08T01:51:38.913Z,11.00
2024-02-08T01:52:19.316Z,10.40
2024-02-08T01:52:52.418Z,10.18
2024-02-08T01:53:29.607Z,10.77
2024-02-08T01:54:04.922Z,11.02
2024-02-08T01:54:45.126Z,11.13
2024-02-08T01:55:17.790Z,10.32
2024-02-08T01:56:14.891Z,10.98
2024-02-08T01:56:49.359Z,10.73
2024-02-08T01:57:21.501Z,12.10
2024-02-08T01:57:53.634Z,9.77
2024-02-08T01:58:26.205Z,10.13
2024-02-08T01:59:01.865Z,11.38
2024-02-08T01:59:34.105Z,10.80
2024-02-08T02:00:12.475Z,10.70
2024-02-08T02:00:50.671Z,10.83
2024-02-08T02:01:26.032Z,11.10
2024-02-08T02:01:59.643Z,10.65
2024-02-08T02:02:38.442Z,12.00
2024-02-08T02:03:14.127Z,12.63
2024-02-08T02:03:47.885Z,11.27
2024-02-08T02:04:22.189Z,11.10
2024-02-08T02:05:00.176Z,11.57
2024-02-08T02:05:32.405Z,12.55
2024-02-08T02:06:11.548Z,10.73
2024-02-08T02:07:03.767Z,12.63
2024-02-08T02:07:36.748Z,10.70
2024-02-08T02:08:14.511Z,11.13
2024-02-08T02:08:59.010Z,11.35
2024-02-08T02:09:33.641Z,11.20
2024-02-08T02:10:05.856Z,10.88
2024-02-08T02:10:38.725Z,10.65
2024-02-08T02:11:26.117Z,10.45
2024-02-08T02:12:18.309Z,11.13
2024-02-08T02:12:50.678Z,9.68
2024-02-08T02:13:24.614Z,11.27
2024-02-08T02:14:56.621Z,10.60
2024-02-08T02:15:35.117Z,10.77
2024-02-08T02:16:09.221Z,10.20
2024-02-08T02:16:41.785Z,10.82
2024-02-08T02:17:21.937Z,9.73
2024-02-08T02:17:56.351Z,10.82
2024-02-08T02:18:28.111Z,11.02
2024-02-08T02:18:59.952Z,10.27
2024-02-08T02:19:32.204Z,10.50
2024-02-08T02:20:13.749Z,10.57
2024-02-08T02:20:45.815Z,9.98
2024-02-08T02:21:23.909Z,11.40
2024-02-08T02:21:55.573Z,9.88
2024-02-08T02:22:30.199Z,10.13
2024-02-08T02:23:02.824Z,10.18
2024-02-08T02:23:37.124Z,10.52
2024-02-08T02:24:09.233Z,10.23
2024-02-08T02:24:42.935Z,11.50
2024-02-08T02:25:17.251Z,11.63
2024-02-08T02:25:54.955Z,10.20
2024-02-08T02:26:33.953Z,11.32
2024-02-08T02:27:06.747Z,11.93
2024-02-08T02:27:43.538Z,9.98
2024-02-08T02:28:21.094Z,10.18
2024-02-08T02:28:56.656Z,10.27
2024-02-08T02:29:28.931Z,10.18
2024-02-08T02:30:02.228Z,10.80
2024-02-08T02:30:36.109Z,9.85
2024-02-08T02:31:08.895Z,11.03
2024-02-08T02:31:43.731Z,10.13
2024-02-08T02:32:17.156Z,10.30
2024-02-08T02:32:53.661Z,11.25
2024-02-08T02:33:26.951Z,10.48
2024-02-08T02:34:18.302Z,10.68
2024-02-08T02:34:55.080Z,9.85
2024-02-08T02:35:32.442Z,10.55
2024-02-08T02:36:55.093Z,9.70
2024-02-08T02:37:26.597Z,10.47
2024-02-08T02:38:04.167Z,10.70
2024-02-08T02:38:38.936Z,10.45
2024-02-08T02:39:10.425Z,10.50
2024-02-08T02:39:42.223Z,11.90
2024-02-08T02:40:22.886Z,10.95
2024-02-08T02:40:54.363Z,10.82
2024-02-08T02:41:29.122Z,10.50
2024-02-08T02:42:00.900Z,10.75
2024-02-08T02:42:32.400Z,10.52
2024-02-08T02:43:11.053Z,10.60
2024-02-08T02:43:45.659Z,11.25
2024-02-08T02:44:36.345Z,11.18
2024-02-08T02:45:14.257Z,10.25
2024-02-08T02:46:06.784Z,9.45
2024-02-08T02:46:38.285Z,9.50
2024-02-08T02:47:09.772Z,9.32
2024-02-08T02:47:41.405Z,10.50
2024-02-08T02:48:13.341Z,9.50
2024-02-08T02:48:45.185Z,9.93
2024-02-08T02:49:19.037Z,8.93
2024-02-08T02:49:52.733Z,11.30
2024-02-08T02:50:24.951Z,9.18
2024-02-08T02:50:56.534Z,9.73
2024-02-08T02:51:28.679Z,10.00
2024-02-08T02:52:19.064Z,10.60
2024-02-08T02:52:52.565Z,9.68
2024-02-08T02:53:25.671Z,9.40
2024-02-08T02:53:59.072Z,10.40
2024-02-08T02:54:32.044Z,8.95
2024-02-08T02:55:03.631Z,9.50
2024-02-08T02:55:36.273Z,8.75
2024-02-08T02:56:13.067Z,9.65
2024-02-08T02:56:48.570Z,9.55
2024-02-08T02:57:20.171Z,9.70
2024-02-08T02:57:51.649Z,9.38
2024-02-08T02:58:24.633Z,9.32
2024-02-08T02:59:17.661Z,10.15
2024-02-08T02:59:49.178Z,9.70
2024-02-08T03:00:25.165Z,9.57
2024-02-08T03:01:05.883Z,9.63
2024-02-08T03:01:57.235Z,9.05
2024-02-08T03:02:29.908Z,8.93
2024-02-08T03:03:08.760Z,9.10
2024-02-08T03:03:59.234Z,8.63
2024-02-08T03:04:50.287Z,10.32
2024-02-08T03:05:24.757Z,8.60
2024-02-08T03:05:57.688Z,8.68
2024-02-08T03:06:29.150Z,9.30
2024-02-08T03:07:00.636Z,9.70
2024-02-08T03:07:32.683Z,7.93
2024-02-08T03:08:07.875Z,9.52
2024-02-08T03:08:42.363Z,8.85
2024-02-08T03:09:16.798Z,9.68
2024-02-08T03:10:06.685Z,10.55
2024-02-08T03:10:43.899Z,9.18
2024-02-08T03:11:15.906Z,10.05
2024-02-08T03:11:47.565Z,8.75
2024-02-08T03:12:19.531Z,10.15
2024-02-08T03:12:52.511Z,9.25
2024-02-08T03:13:24.363Z,9.70
2024-02-08T03:13:56.572Z,9.88
2024-02-08T03:14:47.723Z,10.13
2024-02-08T03:15:20.359Z,9.43
2024-02-08T03:15:53.917Z,9.35
2024-02-08T03:16:27.478Z,9.23
2024-02-08T03:17:03.136Z,9.52
2024-02-08T03:17:34.937Z,10.25
2024-02-08T03:18:08.851Z,9.20
2024-02-08T03:18:44.564Z,9.95
2024-02-08T03:19:17.163Z,10.00
2024-02-08T03:19:48.791Z,10.05
2024-02-08T03:20:30.818Z,10.13
2024-02-08T03:21:02.312Z,10.88
2024-02-08T03:21:37.687Z,10.23
2024-02-08T03:22:09.948Z,8.73
2024-02-08T03:22:41.686Z,9.23
2024-02-08T03:23:31.834Z,9.68
2024-02-08T03:24:08.804Z,9.60
2024-02-08T03:24:40.463Z,9.68
2024-02-08T03:25:15.707Z,8.93
2024-02-08T03:25:50.471Z,9.57
2024-02-08T03:26:48.150Z,8.73
2024-02-08T03:27:22.815Z,9.25
2024-02-08T03:27:54.852Z,9.80
2024-02-08T03:28:26.320Z,9.77
2024-02-08T03:28:57.814Z,8.88
2024-02-08T03:29:29.241Z,9.13
2024-02-08T03:30:03.509Z,9.57
2024-02-08T03:30:36.001Z,9.20
2024-02-08T03:31:10.143Z,10.77
2024-02-08T03:31:48.137Z,10.07
2024-02-08T03:32:22.333Z,9.90
2024-02-08T03:32:54.648Z,9.65
2024-02-08T03:33:26.604Z,10.32
2024-02-08T03:33:58.135Z,9.90
2024-02-08T03:34:32.900Z,9.95
2024-02-08T03:35:06.329Z,9.77
2024-02-08T03:35:39.964Z,10.27
2024-02-08T03:36:11.422Z,9.10
2024-02-08T03:36:43.105Z,9.90
2024-02-08T03:37:14.542Z,8.98
2024-02-08T03:37:49.393Z,9.73
2024-02-08T03:38:21.463Z,11.02
2024-02-08T03:38:54.126Z,10.05
2024-02-08T03:39:26.593Z,9.10
2024-02-08T03:39:58.486Z,9.20
2024-02-08T03:40:33.964Z,8.70
2024-02-08T03:41:05.868Z,10.73
2024-02-08T03:41:38.173Z,10.02
2024-02-08T03:42:12.396Z,9.80
2024-02-08T03:42:43.865Z,10.02
2024-02-08T03:43:16.877Z,9.25
2024-02-08T03:43:49.198Z,10.70
2024-02-08T03:44:22.583Z,9.15
2024-02-08T03:44:54.082Z,10.20
2024-02-08T03:45:28.588Z,9.73
2024-02-08T03:46:02.767Z,10.00
2024-02-08T03:46:34.297Z,9.65
2024-02-08T03:47:06.813Z,8.95
2024-02-08T03:48:01.513Z,9.77
2024-02-08T03:48:33.876Z,8.13
2024-02-08T03:49:09.865Z,9.43
2024-02-08T03:49:52.532Z,9.25
2024-02-08T03:50:26.125Z,8.82
2024-02-08T03:51:01.806Z,9.32
2024-02-08T03:51:33.327Z,9.38
2024-02-08T03:52:05.971Z,9.23
2024-02-08T03:52:38.531Z,8.85
2024-02-08T03:53:15.730Z,9.07
2024-02-08T03:53:47.226Z,8.37
2024-02-08T03:54:18.897Z,8.50
2024-02-08T03:54:50.408Z,8.30
2024-02-08T03:55:27.805Z,8.57
2024-02-08T03:56:00.468Z,8.00
2024-02-08T03:56:38.347Z,8.73
2024-02-08T03:57:30.230Z,8.88
2024-02-08T03:58:01.771Z,7.82
2024-02-08T03:58:33.286Z,8.07
2024-02-08T03:59:13.001Z,7.53
2024-02-08T03:59:44.589Z,8.03
2024-02-08T04:00:24.084Z,7.55
2024-02-08T04:01:01.395Z,7.80
2024-02-08T04:01:33.144Z,7.88
2024-02-08T04:02:06.681Z,8.48
2024-02-08T04:02:39.633Z,7.50
2024-02-08T04:03:34.584Z,6.35
2024-02-08T04:04:16.860Z,7.32
2024-02-08T04:05:07.795Z,7.43
2024-02-08T04:05:48.298Z,6.43
2024-02-08T04:07:01.505Z,6.97
2024-02-08T04:07:52.213Z,6.47
2024-02-08T04:08:33.872Z,6.72
2024-02-08T04:09:10.897Z,7.60
2024-02-08T04:09:49.752Z,7.15
2024-02-08T04:10:41.237Z,7.20
2024-02-08T04:11:31.053Z,6.78
2024-02-08T04:12:21.193Z,7.65
2024-02-08T04:13:11.041Z,7.07
2024-02-08T04:14:01.087Z,6.53
2024-02-08T04:14:51.611Z,6.23
2024-02-08T04:15:42.214Z,6.38
2024-02-08T04:16:32.281Z,6.90
2024-02-08T04:17:22.797Z,8.02
2024-02-08T04:18:13.025Z,6.90
2024-02-08T04:19:03.217Z,6.82
2024-02-08T04:19:53.255Z,6.82
2024-02-08T04:21:02.378Z,6.55
2024-02-08T04:21:52.268Z,6.70
2024-02-08T04:22:42.236Z,7.10
2024-02-08T04:23:34.584Z,7.60
2024-02-08T04:24:25.680Z,7.25
2024-02-08T04:25:34.970Z,6.80
2024-02-08T04:26:26.186Z,7.75
2024-02-08T04:27:16.723Z,8.02
2024-02-08T04:28:06.764Z,7.30
2024-02-08T04:28:57.082Z,6.85
2024-02-08T04:29:47.257Z,7.25
2024-02-08T04:30:37.324Z,7.25
2024-02-08T04:31:30.314Z,6.90
2024-02-08T04:32:20.250Z,7.27
2024-02-08T04:33:10.135Z,8.10
2024-02-08T04:34:19.059Z,6.38
2024-02-08T04:35:28.023Z,6.85
2024-02-08T04:36:17.906Z,7.70
2024-02-08T04:37:08.251Z,6.65
2024-02-08T04:37:58.053Z,6.85
2024-02-08T04:38:47.946Z,6.78
2024-02-08T04:39:37.773Z,8.20
2024-02-08T04:40:29.535Z,7.13
2024-02-08T04:41:24.259Z,7.13
2024-02-08T04:42:14.235Z,7.28
2024-02-08T04:43:06.134Z,7.47
2024-02-08T04:43:56.126Z,8.00
2024-02-08T04:44:46.110Z,8.35
2024-02-08T04:45:36.034Z,7.38
2024-02-08T04:46:25.958Z,7.65
2024-02-08T04:47:27.005Z,7.78
2024-02-08T04:48:17.026Z,7.57
2024-02-08T04:49:07.029Z,7.47
2024-02-08T04:49:56.972Z,8.97
2024-02-08T04:51:06.611Z,7.20
2024-02-08T04:51:56.713Z,7.97
2024-02-08T04:52:46.878Z,7.97
2024-02-08T04:53:46.620Z,7.95
2024-02-08T04:54:18.404Z,6.70
2024-02-08T04:54:49.983Z,7.70
2024-02-08T04:55:21.380Z,9.43
2024-02-08T04:55:52.949Z,8.98
2024-02-08T04:56:24.587Z,7.60
2024-02-08T04:57:00.761Z,7.53
2024-02-08T04:57:32.193Z,7.88
2024-02-08T04:58:28.057Z,9.05
2024-02-08T04:59:17.154Z,7.65
2024-02-08T04:59:48.689Z,7.10
2024-02-08T05:00:39.792Z,8.68
2024-02-08T05:01:12.095Z,7.57
2024-02-08T05:01:43.547Z,6.28
2024-02-08T05:02:15.304Z,7.57
2024-02-08T05:03:05.680Z,7.90
2024-02-08T05:03:39.314Z,7.80
2024-02-08T05:04:10.870Z,8.02
2024-02-08T05:04:44.240Z,7.57
2024-02-08T05:05:20.466Z,7.47
2024-02-08T05:05:55.415Z,8.70
2024-02-08T05:06:27.073Z,7.60
2024-02-08T05:06:58.690Z,7.88
2024-02-08T05:07:30.207Z,7.35
2024-02-08T05:08:02.392Z,7.93
2024-02-08T05:08:33.953Z,7.47
2024-02-08T05:09:05.746Z,7.23
2024-02-08T05:09:37.282Z,7.50
2024-02-08T05:10:10.047Z,8.68
2024-02-08T05:10:41.746Z,7.28
2024-02-08T05:11:15.806Z,8.02
2024-02-08T05:11:50.123Z,7.72
2024-02-08T05:12:22.109Z,8.23
2024-02-08T05:12:53.545Z,7.72
2024-02-08T05:13:26.992Z,7.70
2024-02-08T05:14:04.088Z,7.80
2024-02-08T05:14:39.628Z,8.03
2024-02-08T05:15:14.159Z,7.15
2024-02-08T05:15:47.402Z,7.60
2024-02-08T05:16:20.120Z,8.55
2024-02-08T05:16:55.416Z,7.95
2024-02-08T05:17:45.811Z,7.90
2024-02-08T05:18:17.333Z,7.28
2024-02-08T05:18:50.040Z,7.25
2024-02-08T05:19:24.677Z,8.05
2024-02-08T05:20:37.241Z,7.57
2024-02-08T05:21:32.709Z,7.37
2024-02-08T05:22:04.519Z,8.20
2024-02-08T05:22:36.068Z,7.60
2024-02-08T05:23:07.544Z,7.80
2024-02-08T05:23:42.376Z,8.20
2024-02-08T05:24:14.942Z,6.57
2024-02-08T05:24:47.428Z,7.10
2024-02-08T05:25:25.539Z,7.70
2024-02-08T05:25:58.164Z,7.13
2024-02-08T05:26:33.286Z,6.68
2024-02-08T05:27:05.103Z,7.87
2024-02-08T05:27:37.558Z,7.13
2024-02-08T05:28:11.455Z,7.65
2024-02-08T05:28:44.487Z,7.57
2024-02-08T05:29:20.885Z,7.97
2024-02-08T05:29:52.784Z,7.70
2024-02-08T05:30:24.282Z,7.28
2024-02-08T05:30:55.854Z,7.90
2024-02-08T05:31:27.968Z,8.10
2024-02-08T05:32:00.092Z,7.28
2024-02-08T05:32:36.815Z,7.50
2024-02-08T05:33:30.599Z,7.15
2024-02-08T05:34:02.522Z,6.55
2024-02-08T05:34:34.400Z,7.30
2024-02-08T05:35:06.397Z,7.38
2024-02-08T05:35:38.139Z,6.88
2024-02-08T05:36:13.681Z,7.50
2024-02-08T05:37:04.262Z,8.52
2024-02-08T05:37:35.827Z,7.43
2024-02-08T05:38:09.178Z,7.15
2024-02-08T05:38:43.315Z,6.67
2024-02-08T05:39:25.778Z,7.85
2024-02-08T05:40:01.699Z,7.25
2024-02-08T05:40:33.322Z,7.82
2024-02-08T05:41:18.282Z,7.47
2024-02-08T05:41:49.821Z,6.10
2024-02-08T05:42:40.030Z,7.28
2024-02-08T05:43:11.533Z,7.65
2024-02-08T05:43:46.048Z,7.60
2024-02-08T05:44:17.770Z,7.28
2024-02-08T05:45:07.752Z,6.57
2024-02-08T05:45:39.165Z,6.82
2024-02-08T05:46:10.895Z,7.38
2024-02-08T05:46:42.366Z,7.55
2024-02-08T05:47:16.266Z,7.75
2024-02-08T05:47:49.776Z,7.18
2024-02-08T05:48:24.956Z,7.75
2024-02-08T05:49:12.866Z,8.35
2024-02-08T05:49:50.221Z,7.03
2024-02-08T05:50:25.742Z,7.63
2024-02-08T05:50:58.479Z,6.93
2024-02-08T05:51:29.989Z,7.30
2024-02-08T05:52:07.146Z,7.20
2024-02-08T05:52:39.741Z,7.53
2024-02-08T05:53:16.780Z,7.55
2024-02-08T05:53:48.984Z,6.30
2024-02-08T05:54:33.174Z,7.13
2024-02-08T05:55:05.354Z,7.60
2024-02-08T05:55:41.062Z,7.20
2024-02-08T05:56:12.545Z,6.82
2024-02-08T05:56:44.631Z,7.30
2024-02-08T05:57:16.147Z,7.45
2024-02-08T05:57:48.600Z,7.13
2024-02-08T05:58:21.031Z,6.82
2024-02-08T05:58:52.982Z,7.00
2024-02-08T05:59:24.572Z,6.45
2024-02-08T06:00:01.405Z,7.15
2024-02-08T06:00:46.874Z,6.70
2024-02-08T06:01:22.904Z,6.40
2024-02-08T06:01:55.780Z,6.10
2024-02-08T06:02:27.870Z,7.20
2024-02-08T06:03:06.898Z,6.53
2024-02-08T06:03:39.255Z,6.78
2024-02-08T06:04:13.823Z,6.28
2024-02-08T06:04:52.640Z,7.35
2024-02-08T06:05:28.110Z,5.72
2024-02-08T06:06:08.126Z,7.10
2024-02-08T06:06:49.536Z,6.47
2024-02-08T06:07:40.619Z,6.07
2024-02-08T06:08:26.381Z,6.50
2024-02-08T06:08:58.049Z,5.70
2024-02-08T06:09:47.829Z,5.93
2024-02-08T06:10:24.019Z,6.50
2024-02-08T06:10:57.050Z,6.63
2024-02-08T06:11:28.576Z,6.20
2024-02-08T06:12:09.785Z,6.13
2024-02-08T06:12:45.710Z,6.00
2024-02-08T06:13:18.194Z,6.78
2024-02-08T06:14:07.923Z,6.18
2024-02-08T06:14:40.239Z,7.65
2024-02-08T06:15:34.945Z,6.30
2024-02-08T06:16:15.624Z,5.22
2024-02-08T06:16:48.096Z,6.90
2024-02-08T06:17:25.429Z,6.82
2024-02-08T06:18:05.115Z,7.25
2024-02-08T06:18:39.141Z,5.88
2024-02-08T06:19:10.754Z,6.28
2024-02-08T06:19:52.268Z,6.55
2024-02-08T06:20:35.607Z,5.82
2024-02-08T06:21:25.176Z,5.80
2024-02-08T06:21:58.903Z,5.90
2024-02-08T06:22:31.475Z,6.72
2024-02-08T06:23:17.276Z,5.82
2024-02-08T06:23:49.826Z,6.63
2024-02-08T06:24:25.117Z,5.60
2024-02-08T06:25:10.035Z,5.78
2024-02-08T06:25:46.384Z,6.00
2024-02-08T06:26:18.250Z,6.28
2024-02-08T06:26:57.123Z,6.70
2024-02-08T06:27:34.921Z,5.47
2024-02-08T06:28:06.750Z,6.03
2024-02-08T06:28:54.651Z,5.68
2024-02-08T06:29:28.583Z,5.65
2024-02-08T06:30:08.954Z,5.97
2024-02-08T06:30:48.090Z,6.10
2024-02-08T06:31:21.026Z,6.38
2024-02-08T06:32:01.580Z,6.70
2024-02-08T06:32:45.060Z,6.80
2024-02-08T06:33:27.146Z,5.95
2024-02-08T06:34:19.303Z,5.70
2024-02-08T06:35:09.405Z,5.50
2024-02-08T06:35:46.345Z,5.78
2024-02-08T06:36:24.155Z,6.18
2024-02-08T06:37:17.399Z,5.70
2024-02-08T06:38:04.069Z,6.30
2024-02-08T06:38:42.649Z,4.97
2024-02-08T06:39:31.142Z,5.00
2024-02-08T06:40:05.915Z,5.65
2024-02-08T06:40:56.441Z,4.95
2024-02-08T06:41:47.908Z,5.28
2024-02-08T06:42:48.448Z,5.70
2024-02-08T06:43:26.456Z,4.82
2024-02-08T06:43:58.637Z,5.65
2024-02-08T06:44:39.115Z,5.72
2024-02-08T06:45:26.292Z,5.63
2024-02-08T06:45:57.807Z,6.00
2024-02-08T06:46:48.743Z,4.75
2024-02-08T06:47:40.503Z,5.35
2024-02-08T06:48:36.252Z,5.82
2024-02-08T06:49:31.188Z,4.95
2024-02-08T06:50:21.153Z,4.60
2024-02-08T06:51:11.023Z,4.80
2024-02-08T06:52:00.981Z,4.53
2024-02-08T06:52:50.893Z,5.05
2024-02-08T06:53:41.204Z,4.63
2024-02-08T06:54:31.547Z,5.10
2024-02-08T06:55:21.884Z,4.35
2024-02-08T06:56:12.708Z,4.63
2024-02-08T06:57:22.811Z,5.07
2024-02-08T06:58:12.776Z,4.57
2024-02-08T06:59:21.906Z,4.70
2024-02-08T07:00:12.054Z,4.13
2024-02-08T07:01:02.266Z,5.85
2024-02-08T07:03:00.724Z,4.80
2024-02-08T07:03:50.732Z,5.55
2024-02-08T07:04:40.852Z,5.25
2024-02-08T07:05:31.148Z,5.90
2024-02-08T07:06:20.969Z,4.43
2024-02-08T07:07:10.871Z,5.00
2024-02-08T07:08:01.463Z,4.73
2024-02-08T07:08:51.831Z,4.90
2024-02-08T07:09:41.828Z,5.10
2024-02-08T07:10:31.843Z,5.35
2024-02-08T07:11:22.246Z,4.72
2024-02-08T07:12:31.203Z,5.65
2024-02-08T07:13:21.587Z,4.88
2024-02-08T07:14:11.871Z,4.40
2024-02-08T07:16:10.252Z,5.18
2024-02-08T07:17:00.116Z,6.23
2024-02-08T07:17:50.673Z,4.38
2024-02-08T07:18:49.161Z,4.47
2024-02-08T07:19:42.638Z,5.35
2024-02-08T07:20:32.596Z,4.63
2024-02-08T07:21:41.864Z,4.35
2024-02-08T07:22:32.324Z,4.28
2024-02-08T07:23:23.140Z,5.30
2024-02-08T07:24:13.040Z,4.85
2024-02-08T07:25:04.009Z,4.80
2024-02-08T07:25:54.145Z,4.50
2024-02-08T07:26:44.227Z,4.78
2024-02-08T07:27:34.257Z,5.10
2024-02-08T07:28:24.841Z,4.05
2024-02-08T07:29:14.850Z,4.72
2024-02-08T07:30:04.708Z,5.63
2024-02-08T07:30:57.911Z,3.90
2024-02-08T07:31:48.070Z,5.13
2024-02-08T07:32:37.910Z,4.80
2024-02-08T07:33:27.897Z,4.15
2024-02-08T07:34:18.126Z,4.50
2024-02-08T07:35:08.364Z,3.92
2024-02-08T07:35:58.438Z,5.22
2024-02-08T07:36:48.219Z,4.45
2024-02-08T07:37:19.889Z,4.28
2024-02-08T07:37:51.415Z,4.55
2024-02-08T07:38:42.849Z,4.25
2024-02-08T07:39:31.517Z,4.68
2024-02-08T07:40:24.591Z,5.78
2024-02-08T07:41:20.127Z,4.65
2024-02-08T07:41:57.270Z,4.00
2024-02-08T07:42:34.108Z,4.38
2024-02-08T07:43:15.159Z,4.50
2024-02-08T07:43:55.907Z,5.03
2024-02-08T07:44:33.968Z,4.28
2024-02-08T07:45:14.307Z,4.03
2024-02-08T07:45:56.349Z,4.53
2024-02-08T07:46:31.522Z,3.95
2024-02-08T07:47:05.149Z,4.22
2024-02-08T07:47:36.859Z,4.50
2024-02-08T07:48:11.716Z,4.07
2024-02-08T07:49:44.991Z,4.40
2024-02-08T07:50:25.945Z,5.03
2024-02-08T07:50:57.622Z,4.15
2024-02-08T07:51:30.165Z,4.88
2024-02-08T07:52:21.509Z,5.03
2024-02-08T07:52:59.534Z,4.68
2024-02-08T07:53:46.612Z,4.53
2024-02-08T07:54:21.871Z,4.25
2024-02-08T07:55:11.897Z,4.00
2024-02-08T07:56:24.958Z,4.72
2024-02-08T07:57:01.687Z,4.50
2024-02-08T07:57:35.220Z,4.70
2024-02-08T07:58:09.855Z,5.88
2024-02-08T07:58:43.311Z,5.20
2024-02-08T07:59:17.742Z,5.10
2024-02-08T07:59:49.295Z,4.75
2024-02-08T08:00:35.647Z,5.18
2024-02-08T08:01:11.003Z,4.47
2024-02-08T08:02:13.397Z,5.23
2024-02-08T08:02:48.952Z,4.20
2024-02-08T08:03:24.900Z,4.57
2024-02-08T08:03:58.047Z,4.78
2024-02-08T08:04:49.585Z,5.38
2024-02-08T08:05:43.565Z,4.60
2024-02-08T08:06:16.359Z,4.63
2024-02-08T08:06:48.493Z,5.18
2024-02-08T08:07:39.950Z,5.07
2024-02-08T08:08:33.124Z,4.35
2024-02-08T08:09:20.457Z,4.33
2024-02-08T08:10:08.344Z,4.78
2024-02-08T08:10:39.900Z,4.70
2024-02-08T08:11:20.255Z,5.70
2024-02-08T08:11:53.755Z,4.28
2024-02-08T08:12:29.622Z,5.47
2024-02-08T08:13:56.199Z,5.25
2024-02-08T08:14:39.613Z,4.65
2024-02-08T08:15:11.089Z,4.82
2024-02-08T08:16:01.296Z,4.60
2024-02-08T08:16:33.322Z,3.97
2024-02-08T08:17:07.814Z,4.90
2024-02-08T08:17:44.399Z,5.00
2024-02-08T08:18:31.164Z,5.00
2024-02-08T08:19:11.264Z,5.03
2024-02-08T08:19:47.575Z,4.50
2024-02-08T08:20:45.727Z,5.65
2024-02-08T08:21:27.106Z,5.13
2024-02-08T08:22:19.764Z,4.28
2024-02-08T08:23:00.560Z,4.43
2024-02-08T08:23:32.281Z,4.88
2024-02-08T08:24:04.488Z,3.83
2024-02-08T08:24:55.903Z,4.45
2024-02-08T08:25:31.018Z,3.75
2024-02-08T08:26:38.284Z,4.32
2024-02-08T08:27:28.211Z,4.38
2024-02-08T08:28:12.115Z,4.10
2024-02-08T08:28:53.262Z,4.82
2024-02-08T08:29:27.350Z,4.82
2024-02-08T08:30:04.665Z,6.23
2024-02-08T08:30:39.661Z,3.90
2024-02-08T08:32:34.108Z,4.18
2024-02-08T08:33:06.813Z,4.78
2024-02-08T08:33:56.870Z,3.83
2024-02-08T08:34:37.432Z,4.63
2024-02-08T08:35:27.557Z,4.85
2024-02-08T08:36:06.294Z,4.32
2024-02-08T08:36:37.899Z,3.45
2024-02-08T08:37:29.584Z,3.70
2024-02-08T08:38:20.600Z,4.13
2024-02-08T08:38:55.622Z,4.32
2024-02-08T08:39:45.924Z,4.90
2024-02-08T08:40:17.868Z,4.25
2024-02-08T08:40:50.878Z,3.95
2024-02-08T08:41:25.555Z,4.85
2024-02-08T08:42:00.581Z,3.40
2024-02-08T08:42:32.037Z,3.80
2024-02-08T08:43:11.367Z,4.13
2024-02-08T08:43:54.260Z,4.63
2024-02-08T08:44:31.561Z,3.60
2024-02-08T08:45:06.173Z,4.82
2024-02-08T08:45:42.078Z,4.30
2024-02-08T08:46:13.675Z,4.15
2024-02-08T08:46:46.220Z,3.70
2024-02-08T08:47:18.524Z,4.18